sensor_id;sensor_type;location;lat;lon;timestamp;pressure;altitude;pressure_sealevel;temperature;humidity
3294;BME280;1659;51.470;6.770;2022-07-29T00:00:37;101384.50;;;20.14;44.04
3294;BME280;1659;51.470;6.770;2022-07-29T00:03:04;101380.06;;;20.13;44.09
3294;BME280;1659;51.470;6.770;2022-07-29T00:05:30;101377.38;;;20.13;44.28
3294;BME280;1659;51.470;6.770;2022-07-29T00:07:57;101369.44;;;20.11;44.24
3294;BME280;1659;51.470;6.770;2022-07-29T00:10:23;101370.38;;;20.10;44.28
3294;BME280;1659;51.470;6.770;2022-07-29T00:12:50;101358.06;;;20.06;44.27
3294;BME280;1659;51.470;6.770;2022-07-29T00:15:18;101362.53;;;20.06;44.27
3294;BME280;1659;51.470;6.770;2022-07-29T00:17:44;101359.94;;;20.04;44.33
3294;BME280;1659;51.470;6.770;2022-07-29T00:20:11;101360.91;;;20.03;44.35
3294;BME280;1659;51.470;6.770;2022-07-29T00:22:38;101361.81;;;20.02;44.43
3294;BME280;1659;51.470;6.770;2022-07-29T00:25:05;101349.38;;;20.01;44.36
3294;BME280;1659;51.470;6.770;2022-07-29T00:27:33;101348.59;;;19.99;44.41
3294;BME280;1659;51.470;6.770;2022-07-29T00:29:59;101342.41;;;19.97;44.44
3294;BME280;1659;51.470;6.770;2022-07-29T00:32:27;101343.44;;;19.94;44.60
3294;BME280;1659;51.470;6.770;2022-07-29T00:34:54;101336.31;;;19.93;44.48
3294;BME280;1659;51.470;6.770;2022-07-29T00:37:38;101326.63;;;19.91;44.57
3294;BME280;1659;51.470;6.770;2022-07-29T00:40:05;101328.53;;;19.89;44.74
3294;BME280;1659;51.470;6.770;2022-07-29T00:42:41;101327.69;;;19.87;44.75
3294;BME280;1659;51.470;6.770;2022-07-29T00:45:09;101320.69;;;19.84;44.86
3294;BME280;1659;51.470;6.770;2022-07-29T00:47:37;101311.91;;;19.80;44.73
3294;BME280;1659;51.470;6.770;2022-07-29T00:50:04;101308.44;;;19.78;44.71
3294;BME280;1659;51.470;6.770;2022-07-29T00:52:33;101305.06;;;19.75;45.00
3294;BME280;1659;51.470;6.770;2022-07-29T00:54:59;101303.41;;;19.71;45.07
3294;BME280;1659;51.470;6.770;2022-07-29T00:57:26;101297.25;;;19.69;45.13
3294;BME280;1659;51.470;6.770;2022-07-29T00:59:52;101293.78;;;19.67;45.21
3294;BME280;1659;51.470;6.770;2022-07-29T01:02:19;101287.63;;;19.65;45.08
3294;BME280;1659;51.470;6.770;2022-07-29T01:04:47;101281.47;;;19.62;45.17
3294;BME280;1659;51.470;6.770;2022-07-29T01:07:14;101281.56;;;19.61;45.19
3294;BME280;1659;51.470;6.770;2022-07-29T01:09:42;101285.16;;;19.60;45.36
3294;BME280;1659;51.470;6.770;2022-07-29T01:12:10;101280.75;;;19.59;45.32
3294;BME280;1659;51.470;6.770;2022-07-29T01:14:38;101279.94;;;19.57;45.39
3294;BME280;1659;51.470;6.770;2022-07-29T01:17:09;101290.78;;;19.55;45.44
3294;BME280;1659;51.470;6.770;2022-07-29T01:19:50;101293.44;;;19.55;45.37
3294;BME280;1659;51.470;6.770;2022-07-29T01:22:26;101287.19;;;19.55;45.40
3294;BME280;1659;51.470;6.770;2022-07-29T01:25:17;101289.94;;;19.53;45.32
3294;BME280;1659;51.470;6.770;2022-07-29T01:28:04;101281.13;;;19.51;45.48
3294;BME280;1659;51.470;6.770;2022-07-29T01:30:37;101274.09;;;19.49;45.31
3294;BME280;1659;51.470;6.770;2022-07-29T01:33:07;101277.72;;;19.48;45.56
3294;BME280;1659;51.470;6.770;2022-07-29T01:35:38;101281.25;;;19.48;45.46
3294;BME280;1659;51.470;6.770;2022-07-29T01:38:09;101275.03;;;19.48;45.65
3294;BME280;1659;51.470;6.770;2022-07-29T01:40:41;101277.72;;;19.48;45.66
3294;BME280;1659;51.470;6.770;2022-07-29T01:43:11;101270.63;;;19.47;45.59
3294;BME280;1659;51.470;6.770;2022-07-29T01:45:43;101273.31;;;19.47;45.59
3294;BME280;1659;51.470;6.770;2022-07-29T01:48:14;101276.84;;;19.47;45.71
3294;BME280;1659;51.470;6.770;2022-07-29T01:50:46;101271.50;;;19.47;45.69
3294;BME280;1659;51.470;6.770;2022-07-29T01:53:18;101280.41;;;19.48;45.82
3294;BME280;1659;51.470;6.770;2022-07-29T01:55:48;101271.50;;;19.47;45.58
3294;BME280;1659;51.470;6.770;2022-07-29T01:58:17;101275.09;;;19.46;45.88
3294;BME280;1659;51.470;6.770;2022-07-29T02:00:47;101273.31;;;19.47;45.77
3294;BME280;1659;51.470;6.770;2022-07-29T02:03:16;101269.81;;;19.44;45.70
3294;BME280;1659;51.470;6.770;2022-07-29T02:05:45;101259.97;;;19.45;45.83
3294;BME280;1659;51.470;6.770;2022-07-29T02:08:13;101259.09;;;19.44;45.88
3294;BME280;1659;51.470;6.770;2022-07-29T02:10:42;101259.09;;;19.44;45.79
3294;BME280;1659;51.470;6.770;2022-07-29T02:13:11;101253.81;;;19.43;45.98
3294;BME280;1659;51.470;6.770;2022-07-29T02:15:42;101265.47;;;19.42;45.94
3294;BME280;1659;51.470;6.770;2022-07-29T02:18:14;101268.22;;;19.40;46.03
3294;BME280;1659;51.470;6.770;2022-07-29T02:20:44;101269.34;;;19.36;46.16
3294;BME280;1659;51.470;6.770;2022-07-29T02:23:14;101264.97;;;19.34;46.10
3294;BME280;1659;51.470;6.770;2022-07-29T02:25:43;101263.25;;;19.33;46.15
3294;BME280;1659;51.470;6.770;2022-07-29T02:28:11;101267.72;;;19.32;46.20
3294;BME280;1659;51.470;6.770;2022-07-29T02:30:41;101274.09;;;19.30;46.10
3294;BME280;1659;51.470;6.770;2022-07-29T02:33:13;101285.69;;;19.30;46.25
3294;BME280;1659;51.470;6.770;2022-07-29T02:35:41;101311.56;;;19.31;46.37
3294;BME280;1659;51.470;6.770;2022-07-29T02:38:10;101323.19;;;19.30;46.33
3294;BME280;1659;51.470;6.770;2022-07-29T02:40:57;101338.41;;;19.30;46.53
3294;BME280;1659;51.470;6.770;2022-07-29T02:43:26;101326.75;;;19.31;46.50
3294;BME280;1659;51.470;6.770;2022-07-29T02:45:53;101294.59;;;19.31;46.43
3294;BME280;1659;51.470;6.770;2022-07-29T02:48:28;101300.84;;;19.31;46.49
3294;BME280;1659;51.470;6.770;2022-07-29T02:51:05;101308.88;;;19.31;46.54
3294;BME280;1659;51.470;6.770;2022-07-29T02:53:33;101323.13;;;19.32;46.64
3294;BME280;1659;51.470;6.770;2022-07-29T02:56:05;101320.53;;;19.30;46.68
3294;BME280;1659;51.470;6.770;2022-07-29T02:58:36;101318.06;;;19.26;46.79
3294;BME280;1659;51.470;6.770;2022-07-29T03:01:08;101314.75;;;19.20;47.03
3294;BME280;1659;51.470;6.770;2022-07-29T03:03:39;101328.28;;;19.17;47.19
3294;BME280;1659;51.470;6.770;2022-07-29T03:06:09;101331.16;;;19.13;47.24
3294;BME280;1659;51.470;6.770;2022-07-29T03:08:36;101325.13;;;19.08;47.35
3294;BME280;1659;51.470;6.770;2022-07-29T03:11:03;101314.63;;;19.03;47.53
3294;BME280;1659;51.470;6.770;2022-07-29T03:13:30;101314.91;;;18.97;47.82
3294;BME280;1659;51.470;6.770;2022-07-29T03:15:57;101315.09;;;18.92;48.19
3294;BME280;1659;51.470;6.770;2022-07-29T03:18:25;101319.88;;;18.85;48.12
3294;BME280;1659;51.470;6.770;2022-07-29T03:20:53;101322.72;;;18.81;48.49
3294;BME280;1659;51.470;6.770;2022-07-29T03:23:21;101315.91;;;18.74;48.75
3294;BME280;1659;51.470;6.770;2022-07-29T03:25:49;101318.03;;;18.65;49.15
3294;BME280;1659;51.470;6.770;2022-07-29T03:28:16;101309.47;;;18.57;49.50
3294;BME280;1659;51.470;6.770;2022-07-29T03:30:42;101308.94;;;18.49;49.72
3294;BME280;1659;51.470;6.770;2022-07-29T03:33:09;101321.72;;;18.42;50.33
3294;BME280;1659;51.470;6.770;2022-07-29T03:35:36;101327.25;;;18.38;50.61
3294;BME280;1659;51.470;6.770;2022-07-29T03:38:04;101339.03;;;18.34;50.75
3294;BME280;1659;51.470;6.770;2022-07-29T03:40:33;101327.59;;;18.30;51.07
3294;BME280;1659;51.470;6.770;2022-07-29T03:43:02;101330.34;;;18.28;50.97
3294;BME280;1659;51.470;6.770;2022-07-29T03:45:30;101332.16;;;18.28;51.03
3294;BME280;1659;51.470;6.770;2022-07-29T03:48:01;101343.78;;;18.27;51.05
3294;BME280;1659;51.470;6.770;2022-07-29T03:50:30;101354.47;;;18.27;51.30
3294;BME280;1659;51.470;6.770;2022-07-29T03:52:57;101362.56;;;18.25;51.20
3294;BME280;1659;51.470;6.770;2022-07-29T03:55:26;101386.63;;;18.25;51.28
3294;BME280;1659;51.470;6.770;2022-07-29T03:57:55;101404.50;;;18.25;51.49
3294;BME280;1659;51.470;6.770;2022-07-29T04:00:23;101404.50;;;18.25;51.65
3294;BME280;1659;51.470;6.770;2022-07-29T04:02:50;101393.81;;;18.25;51.69
3294;BME280;1659;51.470;6.770;2022-07-29T04:05:17;101392.03;;;18.24;51.82
3294;BME280;1659;51.470;6.770;2022-07-29T04:07:45;101384.91;;;18.24;51.86
3294;BME280;1659;51.470;6.770;2022-07-29T04:10:11;101390.25;;;18.24;52.07
3294;BME280;1659;51.470;6.770;2022-07-29T04:12:39;101366.19;;;18.24;51.95
3294;BME280;1659;51.470;6.770;2022-07-29T04:15:07;101374.28;;;18.23;52.18
3294;BME280;1659;51.470;6.770;2022-07-29T04:17:34;101365.34;;;18.22;52.33
3294;BME280;1659;51.470;6.770;2022-07-29T04:20:00;101363.81;;;18.17;52.51
3294;BME280;1659;51.470;6.770;2022-07-29T04:22:27;101356.09;;;18.09;53.05
3294;BME280;1659;51.470;6.770;2022-07-29T04:24:53;101359.97;;;18.02;53.23
3294;BME280;1659;51.470;6.770;2022-07-29T04:27:20;101349.63;;;17.92;53.57
3294;BME280;1659;51.470;6.770;2022-07-29T04:29:48;101351.72;;;17.84;54.09
3294;BME280;1659;51.470;6.770;2022-07-29T04:32:14;101340.44;;;17.76;54.30
3294;BME280;1659;51.470;6.770;2022-07-29T04:34:41;101360.41;;;17.67;54.67
3294;BME280;1659;51.470;6.770;2022-07-29T04:37:08;101354.47;;;17.59;55.12
3294;BME280;1659;51.470;6.770;2022-07-29T04:39:34;101349.31;;;17.54;55.23
3294;BME280;1659;51.470;6.770;2022-07-29T04:42:01;101333.44;;;17.50;55.49
3294;BME280;1659;51.470;6.770;2022-07-29T04:44:27;101321.16;;;17.46;55.83
3294;BME280;1659;51.470;6.770;2022-07-29T04:46:56;101310.56;;;17.43;56.05
3294;BME280;1659;51.470;6.770;2022-07-29T04:49:23;101316.09;;;17.38;56.50
3294;BME280;1659;51.470;6.770;2022-07-29T04:51:49;101313.41;;;17.38;56.65
3294;BME280;1659;51.470;6.770;2022-07-29T04:54:16;101304.59;;;17.36;56.78
3294;BME280;1659;51.470;6.770;2022-07-29T04:56:42;101293.81;;;17.39;56.91
3294;BME280;1659;51.470;6.770;2022-07-29T04:59:09;101315.91;;;17.43;57.14
3294;BME280;1659;51.470;6.770;2022-07-29T05:01:36;101321.16;;;17.46;57.23
3294;BME280;1659;51.470;6.770;2022-07-29T05:04:03;101323.19;;;17.39;57.47
3294;BME280;1659;51.470;6.770;2022-07-29T05:06:30;101325.06;;;17.37;57.90
3294;BME280;1659;51.470;6.770;2022-07-29T05:08:57;101326.88;;;17.35;58.04
3294;BME280;1659;51.470;6.770;2022-07-29T05:11:23;101342.09;;;17.33;58.14
3294;BME280;1659;51.470;6.770;2022-07-29T05:13:50;101339.50;;;17.31;58.21
3294;BME280;1659;51.470;6.770;2022-07-29T05:16:16;101341.28;;;17.31;58.41
3294;BME280;1659;51.470;6.770;2022-07-29T05:18:43;101343.81;;;17.35;58.37
3294;BME280;1659;51.470;6.770;2022-07-29T05:21:11;101346.63;;;17.31;58.67
3294;BME280;1659;51.470;6.770;2022-07-29T05:23:38;101338.69;;;17.29;58.59
3294;BME280;1659;51.470;6.770;2022-07-29T05:26:04;101328.06;;;17.28;58.81
3294;BME280;1659;51.470;6.770;2022-07-29T05:28:33;101333.38;;;17.28;59.05
3294;BME280;1659;51.470;6.770;2022-07-29T05:30:59;101340.53;;;17.27;59.15
3294;BME280;1659;51.470;6.770;2022-07-29T05:33:26;101345.94;;;17.26;59.23
3294;BME280;1659;51.470;6.770;2022-07-29T05:35:52;101336.19;;;17.25;59.41
3294;BME280;1659;51.470;6.770;2022-07-29T05:38:20;101332.84;;;17.20;59.65
3294;BME280;1659;51.470;6.770;2022-07-29T05:40:47;101337.34;;;17.17;59.91
3294;BME280;1659;51.470;6.770;2022-07-29T05:43:13;101323.97;;;17.17;60.15
3294;BME280;1659;51.470;6.770;2022-07-29T05:45:40;101323.97;;;17.17;60.25
3294;BME280;1659;51.470;6.770;2022-07-29T05:48:07;101319.47;;;17.20;60.26
3294;BME280;1659;51.470;6.770;2022-07-29T05:50:33;101328.41;;;17.18;60.30
3294;BME280;1659;51.470;6.770;2022-07-29T05:53:00;101333.84;;;17.15;60.56
3294;BME280;1659;51.470;6.770;2022-07-29T05:55:28;101348.22;;;17.13;60.82
3294;BME280;1659;51.470;6.770;2022-07-29T05:57:54;101350.94;;;17.11;60.87
3294;BME280;1659;51.470;6.770;2022-07-29T06:00:21;101345.69;;;17.08;60.72
3294;BME280;1659;51.470;6.770;2022-07-29T06:02:48;101333.28;;;17.07;60.56
3294;BME280;1659;51.470;6.770;2022-07-29T06:05:14;101327.84;;;17.09;60.63
3294;BME280;1659;51.470;6.770;2022-07-29T06:07:41;101312.72;;;17.09;60.69
3294;BME280;1659;51.470;6.770;2022-07-29T06:10:08;101305.53;;;17.11;60.68
3294;BME280;1659;51.470;6.770;2022-07-29T06:12:37;101309.97;;;17.12;60.79
3294;BME280;1659;51.470;6.770;2022-07-29T06:15:04;101325.91;;;17.14;60.85
3294;BME280;1659;51.470;6.770;2022-07-29T06:17:31;101317.66;;;17.20;60.78
3294;BME280;1659;51.470;6.770;2022-07-29T06:19:58;101320.19;;;17.25;60.70
3294;BME280;1659;51.470;6.770;2022-07-29T06:22:24;101319.94;;;17.31;60.59
3294;BME280;1659;51.470;6.770;2022-07-29T06:24:51;101312.50;;;17.39;60.58
3294;BME280;1659;51.470;6.770;2022-07-29T06:27:17;101304.16;;;17.47;60.49
3294;BME280;1659;51.470;6.770;2022-07-29T06:29:45;101303.75;;;17.58;60.44
3294;BME280;1659;51.470;6.770;2022-07-29T06:32:12;101298.13;;;17.65;60.39
3294;BME280;1659;51.470;6.770;2022-07-29T06:34:38;101296.94;;;17.72;60.40
3294;BME280;1659;51.470;6.770;2022-07-29T06:37:06;101304.69;;;17.79;60.43
3294;BME280;1659;51.470;6.770;2022-07-29T06:39:34;101300.03;;;17.84;60.42
3294;BME280;1659;51.470;6.770;2022-07-29T06:42:00;101305.31;;;17.85;60.47
3294;BME280;1659;51.470;6.770;2022-07-29T06:44:27;101321.28;;;17.88;60.49
3294;BME280;1659;51.470;6.770;2022-07-29T06:46:55;101316.72;;;17.90;60.45
3294;BME280;1659;51.470;6.770;2022-07-29T06:49:21;101325.63;;;17.91;60.48
3294;BME280;1659;51.470;6.770;2022-07-29T06:51:49;101335.28;;;17.95;60.61
3294;BME280;1659;51.470;6.770;2022-07-29T06:54:16;101348.59;;;17.97;60.58
3294;BME280;1659;51.470;6.770;2022-07-29T06:56:43;101348.44;;;18.00;60.51
3294;BME280;1659;51.470;6.770;2022-07-29T06:59:11;101352.75;;;18.04;60.44
3294;BME280;1659;51.470;6.770;2022-07-29T07:01:39;101362.50;;;18.05;60.40
3294;BME280;1659;51.470;6.770;2022-07-29T07:04:07;101376.00;;;18.02;60.60
3294;BME280;1659;51.470;6.770;2022-07-29T07:06:34;101390.47;;;17.96;60.76
3294;BME280;1659;51.470;6.770;2022-07-29T07:09:01;101404.09;;;17.90;60.85
3294;BME280;1659;51.470;6.770;2022-07-29T07:11:28;101409.50;;;17.88;60.83
3294;BME280;1659;51.470;6.770;2022-07-29T07:13:55;101399.72;;;17.87;60.89
3294;BME280;1659;51.470;6.770;2022-07-29T07:16:21;101413.03;;;17.89;60.84
3294;BME280;1659;51.470;6.770;2022-07-29T07:18:48;101420.16;;;17.90;60.72
3294;BME280;1659;51.470;6.770;2022-07-29T07:21:16;101418.34;;;17.90;60.80
3294;BME280;1659;51.470;6.770;2022-07-29T07:23:42;101412.81;;;17.95;60.62
3294;BME280;1659;51.470;6.770;2022-07-29T07:26:09;101418.91;;;17.99;60.57
3294;BME280;1659;51.470;6.770;2022-07-29T07:28:36;101422.41;;;18.01;60.55
3294;BME280;1659;51.470;6.770;2022-07-29T07:31:02;101413.47;;;18.02;60.44
3294;BME280;1659;51.470;6.770;2022-07-29T07:33:29;101422.16;;;18.07;60.54
3294;BME280;1659;51.470;6.770;2022-07-29T07:35:55;101420.19;;;18.12;60.32
3294;BME280;1659;51.470;6.770;2022-07-29T07:38:23;101421.78;;;18.16;60.32
3294;BME280;1659;51.470;6.770;2022-07-29T07:40:50;101416.19;;;18.22;60.18
3294;BME280;1659;51.470;6.770;2022-07-29T07:43:16;101415.03;;;18.29;60.03
3294;BME280;1659;51.470;6.770;2022-07-29T07:45:43;101406.72;;;18.36;59.97
3294;BME280;1659;51.470;6.770;2022-07-29T07:48:10;101394.97;;;18.40;59.89
3294;BME280;1659;51.470;6.770;2022-07-29T07:50:36;101403.59;;;18.46;59.72
3294;BME280;1659;51.470;6.770;2022-07-29T07:53:03;101399.00;;;18.50;59.71
3294;BME280;1659;51.470;6.770;2022-07-29T07:55:31;101393.41;;;18.56;59.71
3294;BME280;1659;51.470;6.770;2022-07-29T07:57:57;101403.72;;;18.65;59.22
3294;BME280;1659;51.470;6.770;2022-07-29T08:00:24;101394.47;;;18.73;59.37
3294;BME280;1659;51.470;6.770;2022-07-29T08:02:50;101411.16;;;18.79;59.28
3294;BME280;1659;51.470;6.770;2022-07-29T08:05:17;101411.72;;;18.88;59.04
3294;BME280;1659;51.470;6.770;2022-07-29T08:07:45;101407.19;;;18.90;59.03
3294;BME280;1659;51.470;6.770;2022-07-29T08:10:12;101406.16;;;18.92;59.13
3294;BME280;1659;51.470;6.770;2022-07-29T08:12:40;101415.03;;;18.94;59.22
3294;BME280;1659;51.470;6.770;2022-07-29T08:15:08;101407.91;;;18.93;59.32
3294;BME280;1659;51.470;6.770;2022-07-29T08:17:35;101404.38;;;18.93;59.27
3294;BME280;1659;51.470;6.770;2022-07-29T08:20:02;101403.47;;;18.92;59.19
3294;BME280;1659;51.470;6.770;2022-07-29T08:22:29;101411.38;;;18.95;59.33
3294;BME280;1659;51.470;6.770;2022-07-29T08:24:55;101404.38;;;18.93;59.56
3294;BME280;1659;51.470;6.770;2022-07-29T08:27:22;101399.19;;;18.88;59.74
3294;BME280;1659;51.470;6.770;2022-07-29T08:29:52;101399.34;;;18.85;59.91
3294;BME280;1659;51.470;6.770;2022-07-29T08:32:21;101399.66;;;18.77;60.29
3294;BME280;1659;51.470;6.770;2022-07-29T08:34:47;101397.28;;;18.69;60.54
3294;BME280;1659;51.470;6.770;2022-07-29T08:37:14;101391.78;;;18.73;60.62
3294;BME280;1659;51.470;6.770;2022-07-29T08:39:40;101390.81;;;18.75;60.67
3294;BME280;1659;51.470;6.770;2022-07-29T08:42:07;101392.47;;;18.78;60.88
3294;BME280;1659;51.470;6.770;2022-07-29T08:44:35;101383.25;;;18.85;60.92
3294;BME280;1659;51.470;6.770;2022-07-29T08:47:03;101394.47;;;18.95;60.97
3294;BME280;1659;51.470;6.770;2022-07-29T08:49:32;101394.72;;;19.09;60.98
3294;BME280;1659;51.470;6.770;2022-07-29T08:52:00;101399.56;;;19.40;60.66
3294;BME280;1659;51.470;6.770;2022-07-29T08:54:27;101402.53;;;19.74;60.09
3294;BME280;1659;51.470;6.770;2022-07-29T08:56:54;101403.38;;;20.12;59.57
3294;BME280;1659;51.470;6.770;2022-07-29T08:59:22;101397.31;;;20.26;59.55
3294;BME280;1659;51.470;6.770;2022-07-29T09:01:53;101405.00;;;20.34;59.54
3294;BME280;1659;51.470;6.770;2022-07-29T09:04:24;101396.25;;;20.48;59.64
3294;BME280;1659;51.470;6.770;2022-07-29T09:06:54;101401.94;;;20.59;59.62
3294;BME280;1659;51.470;6.770;2022-07-29T09:09:23;101393.53;;;20.67;59.52
3294;BME280;1659;51.470;6.770;2022-07-29T09:11:50;101389.50;;;20.75;59.51
3294;BME280;1659;51.470;6.770;2022-07-29T09:14:18;101398.38;;;20.78;59.49
3294;BME280;1659;51.470;6.770;2022-07-29T09:16:47;101399.47;;;20.73;59.60
3294;BME280;1659;51.470;6.770;2022-07-29T09:19:26;101393.53;;;20.67;59.72
3294;BME280;1659;51.470;6.770;2022-07-29T09:21:54;101401.66;;;20.65;59.74
3294;BME280;1659;51.470;6.770;2022-07-29T09:24:25;101395.09;;;20.53;59.98
3294;BME280;1659;51.470;6.770;2022-07-29T09:26:52;101398.84;;;20.49;59.96
3294;BME280;1659;51.470;6.770;2022-07-29T09:29:21;101396.50;;;20.43;60.28
3294;BME280;1659;51.470;6.770;2022-07-29T09:31:49;101408.16;;;20.42;60.18
3294;BME280;1659;51.470;6.770;2022-07-29T09:34:20;101387.00;;;20.36;60.18
3294;BME280;1659;51.470;6.770;2022-07-29T09:36:50;101391.81;;;20.29;60.43
3294;BME280;1659;51.470;6.770;2022-07-29T09:39:27;101377.41;;;20.30;60.47
3294;BME280;1659;51.470;6.770;2022-07-29T09:41:55;101368.28;;;20.34;60.36
3294;BME280;1659;51.470;6.770;2022-07-29T09:44:23;101370.19;;;20.32;60.70
3294;BME280;1659;51.470;6.770;2022-07-29T09:46:57;101370.19;;;20.32;60.74
3294;BME280;1659;51.470;6.770;2022-07-29T09:49:24;101378.88;;;20.37;60.65
3294;BME280;1659;51.470;6.770;2022-07-29T09:52:04;101371.28;;;20.46;60.64
3294;BME280;1659;51.470;6.770;2022-07-29T09:54:31;101371.72;;;20.55;60.36
3294;BME280;1659;51.470;6.770;2022-07-29T09:57:02;101379.47;;;20.62;60.28
3294;BME280;1659;51.470;6.770;2022-07-29T09:59:29;101379.78;;;20.73;60.17
3294;BME280;1659;51.470;6.770;2022-07-29T10:01:56;101382.06;;;20.81;59.94
3294;BME280;1659;51.470;6.770;2022-07-29T10:04:23;101389.03;;;20.85;59.95
3294;BME280;1659;51.470;6.770;2022-07-29T10:06:57;101377.25;;;20.87;59.92
3294;BME280;1659;51.470;6.770;2022-07-29T10:09:25;101367.47;;;20.86;59.99
3294;BME280;1659;51.470;6.770;2022-07-29T10:12:06;101365.03;;;20.82;60.12
3294;BME280;1659;51.470;6.770;2022-07-29T10:14:33;101369.69;;;20.78;60.27
3294;BME280;1659;51.470;6.770;2022-07-29T10:17:00;101368.19;;;20.72;60.38
3294;BME280;1659;51.470;6.770;2022-07-29T10:19:28;101368.50;;;20.66;60.50
3294;BME280;1659;51.470;6.770;2022-07-29T10:21:57;101369.53;;;20.64;60.62
3294;BME280;1659;51.470;6.770;2022-07-29T10:24:26;101367.72;;;20.64;60.82
3294;BME280;1659;51.470;6.770;2022-07-29T10:26:54;101363.84;;;20.70;60.33
3294;BME280;1659;51.470;6.770;2022-07-29T10:29:22;101363.19;;;20.82;60.15
3294;BME280;1659;51.470;6.770;2022-07-29T10:31:57;101367.75;;;20.98;59.71
3294;BME280;1659;51.470;6.770;2022-07-29T10:34:43;101364.97;;;21.17;59.32
3294;BME280;1659;51.470;6.770;2022-07-29T10:37:19;101373.44;;;21.42;58.88
3294;BME280;1659;51.470;6.770;2022-07-29T10:39:55;101382.28;;;21.78;58.22
3294;BME280;1659;51.470;6.770;2022-07-29T10:42:27;101377.16;;;22.21;57.37
3294;BME280;1659;51.470;6.770;2022-07-29T10:44:55;101375.31;;;22.68;56.48
3294;BME280;1659;51.470;6.770;2022-07-29T10:47:23;101379.75;;;23.13;55.81
3294;BME280;1659;51.470;6.770;2022-07-29T10:49:57;101388.41;;;23.62;54.94
3294;BME280;1659;51.470;6.770;2022-07-29T10:52:24;101381.56;;;24.39;53.24
3294;BME280;1659;51.470;6.770;2022-07-29T10:54:54;101380.41;;;25.09;52.06
3294;BME280;1659;51.470;6.770;2022-07-29T10:57:25;101372.22;;;25.99;50.68
3294;BME280;1659;51.470;6.770;2022-07-29T11:02:52;101376.09;;;27.71;48.24
3294;BME280;1659;51.470;6.770;2022-07-29T11:05:21;101378.31;;;28.32;46.74
3294;BME280;1659;51.470;6.770;2022-07-29T11:08:21;101368.19;;;28.66;46.22
3294;BME280;1659;51.470;6.770;2022-07-29T11:10:51;101369.69;;;29.22;45.61
3294;BME280;1659;51.470;6.770;2022-07-29T11:13:48;101374.88;;;29.66;44.86
3294;BME280;1659;51.470;6.770;2022-07-29T11:16:16;101372.28;;;30.24;44.22
3294;BME280;1659;51.470;6.770;2022-07-29T11:21:44;101375.47;;;30.59;42.37
3294;BME280;1659;51.470;6.770;2022-07-29T11:24:13;101377.47;;;30.66;42.33
3294;BME280;1659;51.470;6.770;2022-07-29T11:26:41;101381.91;;;30.77;41.56
3294;BME280;1659;51.470;6.770;2022-07-29T11:29:17;101375.88;;;30.93;40.76
3294;BME280;1659;51.470;6.770;2022-07-29T11:31:46;101384.97;;;30.55;41.64
3294;BME280;1659;51.470;6.770;2022-07-29T11:34:24;101375.47;;;30.49;41.39
3294;BME280;1659;51.470;6.770;2022-07-29T11:37:14;101379.22;;;30.48;40.94
3294;BME280;1659;51.470;6.770;2022-07-29T11:39:42;101385.09;;;30.43;40.63
3294;BME280;1659;51.470;6.770;2022-07-29T11:42:39;101378.75;;;30.62;40.18
3294;BME280;1659;51.470;6.770;2022-07-29T11:45:07;101383.06;;;30.55;40.15
3294;BME280;1659;51.470;6.770;2022-07-29T11:47:35;101380.59;;;30.23;40.14
3294;BME280;1659;51.470;6.770;2022-07-29T11:50:04;101384.28;;;29.92;40.42
3294;BME280;1659;51.470;6.770;2022-07-29T11:52:32;101388.78;;;29.63;41.12
3294;BME280;1659;51.470;6.770;2022-07-29T11:55:04;101383.84;;;29.56;41.03
3294;BME280;1659;51.470;6.770;2022-07-29T11:57:33;101385.72;;;29.46;40.99
3294;BME280;1659;51.470;6.770;2022-07-29T12:00:03;101396.34;;;29.07;41.48
3294;BME280;1659;51.470;6.770;2022-07-29T12:02:40;101386.75;;;28.61;41.51
3294;BME280;1659;51.470;6.770;2022-07-29T12:05:08;101395.91;;;28.16;42.12
3294;BME280;1659;51.470;6.770;2022-07-29T12:07:37;101395.97;;;27.94;42.22
3294;BME280;1659;51.470;6.770;2022-07-29T12:10:05;101395.22;;;27.80;42.08
3294;BME280;1659;51.470;6.770;2022-07-29T12:12:32;101389.19;;;27.77;42.17
3294;BME280;1659;51.470;6.770;2022-07-29T12:15:14;101385.72;;;27.75;42.01
3294;BME280;1659;51.470;6.770;2022-07-29T12:17:43;101396.00;;;27.60;42.11
3294;BME280;1659;51.470;6.770;2022-07-29T12:20:10;101384.00;;;27.40;42.13
3294;BME280;1659;51.470;6.770;2022-07-29T12:22:40;101392.38;;;27.25;42.06
3294;BME280;1659;51.470;6.770;2022-07-29T12:25:10;101392.72;;;27.09;42.01
3294;BME280;1659;51.470;6.770;2022-07-29T12:27:39;101406.28;;;26.63;42.60
3294;BME280;1659;51.470;6.770;2022-07-29T12:30:11;101401.72;;;26.39;42.92
3294;BME280;1659;51.470;6.770;2022-07-29T12:32:40;101412.13;;;26.21;43.17
3294;BME280;1659;51.470;6.770;2022-07-29T12:35:09;101407.59;;;26.09;43.10
3294;BME280;1659;51.470;6.770;2022-07-29T12:37:38;101407.66;;;25.83;43.69
3294;BME280;1659;51.470;6.770;2022-07-29T12:40:07;101407.81;;;25.56;44.09
3294;BME280;1659;51.470;6.770;2022-07-29T12:42:35;101407.47;;;25.48;44.26
3294;BME280;1659;51.470;6.770;2022-07-29T12:45:03;101404.56;;;25.51;43.82
3294;BME280;1659;51.470;6.770;2022-07-29T12:47:32;101405.00;;;25.57;43.85
3294;BME280;1659;51.470;6.770;2022-07-29T12:50:09;101402.81;;;25.62;43.73
3294;BME280;1659;51.470;6.770;2022-07-29T12:52:37;101407.56;;;25.72;43.50
3294;BME280;1659;51.470;6.770;2022-07-29T12:55:04;101403.66;;;25.76;43.37
3294;BME280;1659;51.470;6.770;2022-07-29T12:57:31;101403.50;;;25.90;43.43
3294;BME280;1659;51.470;6.770;2022-07-29T13:00:04;101405.75;;;26.09;42.78
3294;BME280;1659;51.470;6.770;2022-07-29T13:02:34;101399.28;;;26.47;42.29
3294;BME280;1659;51.470;6.770;2022-07-29T13:05:01;101401.59;;;27.00;41.75
3294;BME280;1659;51.470;6.770;2022-07-29T13:07:30;101392.75;;;27.43;41.34
3294;BME280;1659;51.470;6.770;2022-07-29T13:10:10;101392.41;;;27.82;40.71
3294;BME280;1659;51.470;6.770;2022-07-29T13:12:38;101391.72;;;28.12;40.36
3294;BME280;1659;51.470;6.770;2022-07-29T13:15:12;101399.53;;;28.05;40.36
3294;BME280;1659;51.470;6.770;2022-07-29T13:17:42;101392.50;;;27.92;40.42
3294;BME280;1659;51.470;6.770;2022-07-29T13:20:10;101398.31;;;27.76;40.74
3294;BME280;1659;51.470;6.770;2022-07-29T13:22:39;101407.34;;;27.65;40.87
3294;BME280;1659;51.470;6.770;2022-07-29T13:25:08;101408.44;;;27.51;40.93